Derby Field Lovelock US
ICAO: KLOL
IATA: LOL
Category: Medium
Scheduled Services: No

Elevation: 3904 ft
TransAlt. 18000 ft.

Airport Communications:
ASOS:120.675
OAKLAND CNTR:128.8
RENO RDO:122.4
CTAF/UNICOM:122.8

KLOL Zoom In..

Runways:

(A) RW 02 length 5529 ft width 75 ft
---- / hdg 16

(B) RW 08 length 4931 ft width 75 ft
---- / hdg 76

(C) RW 20 length 5529 ft width 75 ft
---- / hdg 196

(D) RW 26 length 4931 ft width 75 ft
---- / hdg 256

Location; KLOL
Day. 04 / Time. 01.53 Zulu
* Altimeter: 30.02
* Temperature: 34° c. 93.2°f.
* Wind from: 270° Speed 07 kn.
Dewpoint: -02° c.
Visibility: 10 Statute Miles.
Clouds: Clear (automated report).

KLOL 040153Z AUTO 27007KT 10SM CLR 34/M02 A3002 RMK AO2 SLP122 T03391017

Going to: --> -->


Wind From 270°
Speed 07 kn.

 
 
jpsmedia worldairports.se 2020   terms of use